Time,TemperatureF,DewpointF,PressureIn,WindDirection,WindDirectionDegrees,WindSpeedMPH,WindSpeedGustMPH,Humidity,HourlyPrecipIn,Conditions,Clouds,dailyrainin,SoftwareType,DateUTC
2013-06-29 00:00:00,69.8,65.4,29.37,North,0,0.0,0.0,86,0.00,,,0.00,WUHU216HW,2013-06-29 04:00:00,
2013-06-29 00:01:00,69.8,65.4,29.37,North,0,0.0,0.0,86,0.00,,,0.00,WUHU216HW,2013-06-29 04:01:00,
2013-06-29 00:02:00,69.8,65.4,29.37,North,0,0.0,0.0,86,0.00,,,0.00,WUHU216HW,2013-06-29 04:02:00,
2013-06-29 00:07:00,69.8,65.4,29.37,North,0,0.0,0.0,86,0.00,,,0.00,WUHU216HW,2013-06-29 04:07:00,
2013-06-29 00:12:00,69.5,65.1,29.37,North,0,0.0,0.0,86,0.00,,,0.00,WUHU216HW,2013-06-29 04:12:00,
2013-06-29 00:17:00,69.3,64.9,29.37,North,0,0.0,0.0,86,0.00,,,0.00,WUHU216HW,2013-06-29 04:17:00,
2013-06-29 00:22:00,69.1,64.7,29.37,North,0,0.0,0.0,86,0.00,,,0.00,WUHU216HW,2013-06-29 04:22:00,
2013-06-29 00:27:00,68.9,64.5,29.36,North,0,0.0,0.0,86,0.00,,,0.00,WUHU216HW,2013-06-29 04:27:00,
2013-06-29 00:32:00,68.6,64.2,29.36,North,0,0.0,0.0,86,0.00,,,0.00,WUHU216HW,2013-06-29 04:32:00,
2013-06-29 00:38:00,68.4,64.4,29.37,North,0,0.0,0.0,87,0.00,,,0.00,WUHU216HW,2013-06-29 04:38:00,
2013-06-29 00:43:00,68.2,64.5,29.36,North,0,0.0,0.0,88,0.00,,,0.00,WUHU216HW,2013-06-29 04:43:00,
2013-06-29 00:48:00,68.2,64.5,29.36,North,0,0.0,0.0,88,0.00,,,0.00,WUHU216HW,2013-06-29 04:48:00,
2013-06-29 00:53:00,68.0,64.4,29.37,North,0,0.0,0.0,88,0.00,,,0.00,WUHU216HW,2013-06-29 04:53:00,
2013-06-29 00:58:00,68.0,64.6,29.37,North,0,0.0,0.0,89,0.00,,,0.00,WUHU216HW,2013-06-29 04:58:00,
2013-06-29 01:03:00,68.0,64.4,29.37,North,0,0.0,0.0,88,0.00,,,0.00,WUHU216HW,2013-06-29 05:03:00,
2013-06-29 01:08:00,68.0,64.4,29.37,North,0,0.0,0.0,88,0.00,,,0.00,WUHU216HW,2013-06-29 05:08:00,
2013-06-29 01:13:00,68.0,64.4,29.37,North,0,0.0,0.0,88,0.00,,,0.00,WUHU216HW,2013-06-29 05:13:00,
2013-06-29 01:18:00,67.9,64.4,29.37,North,0,0.0,0.0,89,0.00,,,0.00,WUHU216HW,2013-06-29 05:18:00,
2013-06-29 01:23:00,67.9,64.4,29.38,North,0,0.0,0.0,89,0.00,,,0.00,WUHU216HW,2013-06-29 05:23:00,
2013-06-29 01:28:00,67.9,64.8,29.38,North,0,0.0,0.0,90,0.00,,,0.00,WUHU216HW,2013-06-29 05:28:00,
2013-06-29 01:34:00,67.9,64.8,29.38,North,0,0.0,0.0,90,0.00,,,0.00,WUHU216HW,2013-06-29 05:34:00,
2013-06-29 01:39:00,67.7,64.6,29.38,North,0,0.0,0.0,90,0.00,,,0.00,WUHU216HW,2013-06-29 05:39:00,
2013-06-29 01:44:00,67.5,64.4,29.38,North,0,0.0,0.0,90,0.00,,,0.00,WUHU216HW,2013-06-29 05:44:00,
2013-06-29 01:49:00,67.3,64.3,29.37,North,0,0.0,0.0,90,0.00,,,0.00,WUHU216HW,2013-06-29 05:49:00,
2013-06-29 01:54:00,67.3,64.3,29.37,North,0,0.0,0.0,90,0.00,,,0.00,WUHU216HW,2013-06-29 05:54:00,
2013-06-29 01:59:00,67.1,64.1,29.38,North,0,0.0,0.0,90,0.00,,,0.00,WUHU216HW,2013-06-29 05:59:00,
2013-06-29 02:04:00,67.0,63.9,29.38,North,0,0.0,0.0,90,0.00,,,0.00,WUHU216HW,2013-06-29 06:04:00,
2013-06-29 02:09:00,67.0,64.2,29.38,North,0,0.0,0.0,91,0.00,,,0.00,WUHU216HW,2013-06-29 06:09:00,
2013-06-29 02:14:00,66.8,63.7,29.37,North,0,0.0,0.0,90,0.00,,,0.00,WUHU216HW,2013-06-29 06:14:00,
2013-06-29 02:20:00,66.8,63.7,29.37,North,0,0.0,0.0,90,0.00,,,0.00,WUHU216HW,2013-06-29 06:20:00,
2013-06-29 02:25:00,66.6,63.8,29.37,North,0,0.0,0.0,91,0.00,,,0.00,WUHU216HW,2013-06-29 06:25:00,
2013-06-29 02:30:00,66.8,63.7,29.37,North,0,0.0,0.0,90,0.00,,,0.00,WUHU216HW,2013-06-29 06:30:00,
2013-06-29 02:35:00,66.8,64.0,29.37,North,0,0.0,0.0,91,0.00,,,0.00,WUHU216HW,2013-06-29 06:35:00,
2013-06-29 02:40:00,67.0,64.2,29.36,North,0,0.0,0.0,91,0.00,,,0.00,WUHU216HW,2013-06-29 06:40:00,
2013-06-29 02:45:00,66.8,64.0,29.36,North,0,0.0,0.0,91,0.00,,,0.00,WUHU216HW,2013-06-29 06:45:00,
2013-06-29 02:50:00,66.8,64.0,29.36,North,0,0.0,0.0,91,0.00,,,0.00,WUHU216HW,2013-06-29 06:50:00,
2013-06-29 02:55:00,66.6,63.8,29.35,North,0,0.0,0.0,91,0.00,,,0.00,WUHU216HW,2013-06-29 06:55:00,
2013-06-29 03:00:00,66.6,63.8,29.35,North,0,0.0,0.0,91,0.00,,,0.00,WUHU216HW,2013-06-29 07:00:00,
2013-06-29 03:06:00,66.6,63.8,29.36,North,0,0.0,0.0,91,0.00,,,0.00,WUHU216HW,2013-06-29 07:06:00,
2013-06-29 03:11:00,66.4,63.6,29.36,North,0,0.0,0.0,91,0.00,,,0.00,WUHU216HW,2013-06-29 07:11:00,
2013-06-29 03:16:00,66.4,63.6,29.36,North,0,0.0,0.0,91,0.00,,,0.00,WUHU216HW,2013-06-29 07:16:00,
2013-06-29 03:21:00,66.2,63.5,29.36,North,0,0.0,0.0,91,0.00,,,0.00,WUHU216HW,2013-06-29 07:21:00,
2013-06-29 03:26:00,66.2,63.5,29.37,North,0,0.0,0.0,91,0.00,,,0.00,WUHU216HW,2013-06-29 07:26:00,
2013-06-29 03:31:00,66.2,63.5,29.36,North,0,0.0,0.0,91,0.00,,,0.00,WUHU216HW,2013-06-29 07:31:00,
2013-06-29 03:36:00,66.2,63.5,29.36,North,0,0.0,0.0,91,0.00,,,0.00,WUHU216HW,2013-06-29 07:36:00,
2013-06-29 03:41:00,66.2,63.5,29.36,North,0,0.0,0.0,91,0.00,,,0.00,WUHU216HW,2013-06-29 07:41:00,
2013-06-29 03:47:00,66.2,63.5,29.37,North,0,0.0,0.0,91,0.00,,,0.00,WUHU216HW,2013-06-29 07:47:00,
2013-06-29 03:52:00,66.1,63.4,29.37,North,0,0.0,0.0,91,0.00,,,0.00,WUHU216HW,2013-06-29 07:52:00,
2013-06-29 03:57:00,65.9,63.2,29.37,North,0,0.0,0.0,91,0.00,,,0.00,WUHU216HW,2013-06-29 07:57:00,
2013-06-29 04:02:00,65.9,63.2,29.37,North,0,0.0,0.0,91,0.00,,,0.00,WUHU216HW,2013-06-29 08:02:00,
2013-06-29 04:07:00,65.7,62.7,29.37,North,0,0.0,0.0,90,0.00,,,0.00,WUHU216HW,2013-06-29 08:07:00,
2013-06-29 04:12:00,65.5,62.6,29.38,North,0,0.0,0.0,90,0.00,,,0.00,WUHU216HW,2013-06-29 08:12:00,
2013-06-29 04:17:00,65.7,63.0,29.38,North,0,0.0,0.0,91,0.00,,,0.00,WUHU216HW,2013-06-29 08:17:00,
2013-06-29 04:22:00,65.7,63.0,29.38,North,0,0.0,0.0,91,0.00,,,0.00,WUHU216HW,2013-06-29 08:22:00,
2013-06-29 04:27:00,65.9,63.2,29.38,North,0,0.0,0.0,91,0.00,,,0.00,WUHU216HW,2013-06-29 08:27:00,
2013-06-29 04:33:00,65.9,63.2,29.38,North,0,0.0,0.0,91,0.00,,,0.00,WUHU216HW,2013-06-29 08:33:00,
2013-06-29 04:38:00,65.9,63.2,29.38,North,0,0.0,0.0,91,0.00,,,0.00,WUHU216HW,2013-06-29 08:38:00,
2013-06-29 04:43:00,65.9,63.2,29.38,North,0,0.0,0.0,91,0.00,,,0.00,WUHU216HW,2013-06-29 08:43:00,
2013-06-29 04:48:00,65.7,63.0,29.38,North,0,0.0,0.0,91,0.00,,,0.00,WUHU216HW,2013-06-29 08:48:00,
2013-06-29 04:53:00,65.5,62.8,29.38,North,0,0.0,0.0,91,0.00,,,0.00,WUHU216HW,2013-06-29 08:53:00,
2013-06-29 04:58:00,65.3,62.6,29.38,North,0,0.0,0.0,91,0.00,,,0.00,WUHU216HW,2013-06-29 08:58:00,
2013-06-29 05:03:00,65.3,62.6,29.38,North,0,0.0,0.0,91,0.00,,,0.00,WUHU216HW,2013-06-29 09:03:00,
2013-06-29 05:08:00,65.2,62.5,29.38,North,0,0.0,0.0,91,0.00,,,0.00,WUHU216HW,2013-06-29 09:08:00,
2013-06-29 05:14:00,65.2,62.8,29.39,North,0,0.0,0.0,92,0.00,,,0.00,WUHU216HW,2013-06-29 09:14:00,
2013-06-29 05:19:00,65.2,62.8,29.39,North,0,0.0,0.0,92,0.00,,,0.00,WUHU216HW,2013-06-29 09:19:00,
2013-06-29 05:24:00,65.2,62.8,29.41,North,0,0.0,0.0,92,0.00,,,0.00,WUHU216HW,2013-06-29 09:24:00,
2013-06-29 05:29:00,65.2,62.8,29.41,North,0,0.0,0.0,92,0.00,,,0.00,WUHU216HW,2013-06-29 09:29:00,
2013-06-29 05:34:00,65.5,63.1,29.41,North,0,0.0,0.0,92,0.00,,,0.00,WUHU216HW,2013-06-29 09:34:00,
2013-06-29 05:39:00,65.7,63.3,29.41,North,0,0.0,0.0,92,0.00,,,0.00,WUHU216HW,2013-06-29 09:39:00,
2013-06-29 05:44:00,65.9,63.5,29.42,North,0,0.0,0.0,92,0.00,,,0.00,WUHU216HW,2013-06-29 09:44:00,
2013-06-29 05:49:00,66.2,64.1,29.42,North,0,0.0,0.0,93,0.00,,,0.00,WUHU216HW,2013-06-29 09:49:00,
2013-06-29 05:54:00,66.6,64.4,29.41,North,0,0.0,0.0,93,0.00,,,0.00,WUHU216HW,2013-06-29 09:54:00,
2013-06-29 05:59:00,66.8,64.6,29.41,North,0,0.0,0.0,93,0.00,,,0.00,WUHU216HW,2013-06-29 09:59:00,
2013-06-29 06:04:00,67.0,64.8,29.42,North,0,0.0,0.0,93,0.00,,,0.00,WUHU216HW,2013-06-29 10:04:00,
2013-06-29 06:10:00,67.0,64.8,29.42,North,0,0.0,0.0,93,0.00,,,0.00,WUHU216HW,2013-06-29 10:10:00,
2013-06-29 06:15:00,67.1,65.0,29.42,North,0,0.0,0.0,93,0.00,,,0.00,WUHU216HW,2013-06-29 10:15:00,
2013-06-29 06:20:00,67.5,65.3,29.43,North,0,0.0,0.0,93,0.00,,,0.00,WUHU216HW,2013-06-29 10:20:00,
2013-06-29 06:25:00,67.7,65.5,29.43,North,0,0.0,0.0,93,0.00,,,0.00,WUHU216HW,2013-06-29 10:25:00,
2013-06-29 06:30:00,68.0,65.9,29.43,North,0,0.0,0.0,93,0.00,,,0.00,WUHU216HW,2013-06-29 10:30:00,
2013-06-29 06:35:00,68.0,65.9,29.43,North,0,0.0,0.0,93,0.00,,,0.00,WUHU216HW,2013-06-29 10:35:00,
2013-06-29 06:40:00,68.2,66.1,29.43,North,0,0.0,0.0,93,0.00,,,0.00,WUHU216HW,2013-06-29 10:40:00,
2013-06-29 06:45:00,68.4,66.2,29.43,North,0,0.0,0.0,93,0.00,,,0.00,WUHU216HW,2013-06-29 10:45:00,
2013-06-29 06:50:00,68.6,66.4,29.43,North,0,0.0,0.0,93,0.00,,,0.00,WUHU216HW,2013-06-29 10:50:00,
2013-06-29 06:55:00,68.8,66.6,29.44,North,0,0.0,0.0,93,0.00,,,0.00,WUHU216HW,2013-06-29 10:55:00,
2013-06-29 07:00:00,69.1,67.0,29.43,North,0,0.0,0.0,93,0.00,,,0.00,WUHU216HW,2013-06-29 11:00:00,
2013-06-29 07:05:00,69.1,67.0,29.44,North,0,0.0,0.0,93,0.00,,,0.00,WUHU216HW,2013-06-29 11:05:00,
2013-06-29 07:10:00,69.3,67.1,29.43,North,0,0.0,0.0,93,0.00,,,0.00,WUHU216HW,2013-06-29 11:10:00,
2013-06-29 07:15:00,69.5,67.3,29.44,North,0,0.0,0.0,93,0.00,,,0.00,WUHU216HW,2013-06-29 11:15:00,
2013-06-29 07:21:00,69.5,67.3,29.44,North,0,0.0,0.0,93,0.00,,,0.00,WUHU216HW,2013-06-29 11:21:00,
2013-06-29 07:26:00,69.7,67.5,29.44,North,0,0.0,0.0,93,0.00,,,0.00,WUHU216HW,2013-06-29 11:26:00,
2013-06-29 07:31:00,69.8,67.7,29.44,North,0,0.0,0.0,93,0.00,,,0.00,WUHU216HW,2013-06-29 11:31:00,
2013-06-29 07:36:00,70.0,67.6,29.44,North,0,0.0,0.0,92,0.00,,,0.00,WUHU216HW,2013-06-29 11:36:00,
2013-06-29 07:41:00,70.2,67.8,29.43,North,0,0.0,0.0,92,0.00,,,0.00,WUHU216HW,2013-06-29 11:41:00,
2013-06-29 07:46:00,70.4,68.0,29.43,North,0,0.0,0.0,92,0.00,,,0.00,WUHU216HW,2013-06-29 11:46:00,
2013-06-29 07:51:00,70.6,68.1,29.43,North,0,0.0,0.0,92,0.00,,,0.00,WUHU216HW,2013-06-29 11:51:00,
2013-06-29 07:56:00,70.7,68.0,29.44,North,0,0.0,0.0,91,0.00,,,0.00,WUHU216HW,2013-06-29 11:56:00,
2013-06-29 08:01:00,70.9,68.1,29.44,North,0,0.0,0.0,91,0.00,,,0.00,WUHU216HW,2013-06-29 12:01:00,
2013-06-29 08:07:00,71.3,68.5,29.44,North,0,0.0,0.0,91,0.00,,,0.00,WUHU216HW,2013-06-29 12:07:00,
2013-06-29 08:12:00,71.8,69.0,29.44,North,0,0.0,0.0,91,0.00,,,0.00,WUHU216HW,2013-06-29 12:12:00,
2013-06-29 08:17:00,72.2,69.4,29.44,North,0,0.0,0.0,91,0.00,,,0.00,WUHU216HW,2013-06-29 12:17:00,
2013-06-29 08:22:00,72.4,69.3,29.45,North,0,0.0,0.0,90,0.00,,,0.00,WUHU216HW,2013-06-29 12:22:00,
2013-06-29 08:27:00,72.5,69.5,29.45,North,0,0.0,0.0,90,0.00,,,0.00,WUHU216HW,2013-06-29 12:27:00,
2013-06-29 08:32:00,72.7,68.9,29.45,North,0,0.0,0.0,88,0.00,,,0.00,WUHU216HW,2013-06-29 12:32:00,
2013-06-29 08:37:00,72.9,68.9,29.45,North,0,0.0,0.0,87,0.00,,,0.00,WUHU216HW,2013-06-29 12:37:00,
2013-06-29 08:42:00,73.6,69.8,29.45,North,0,0.0,0.0,88,0.00,,,0.00,WUHU216HW,2013-06-29 12:42:00,
2013-06-29 08:47:00,74.5,70.5,29.46,North,0,0.0,0.0,87,0.00,,,0.00,WUHU216HW,2013-06-29 12:47:00,
2013-06-29 08:53:00,75.1,70.7,29.46,North,0,0.0,0.0,86,0.00,,,0.00,WUHU216HW,2013-06-29 12:53:00,
2013-06-29 08:58:00,75.4,70.3,29.46,North,0,0.0,0.0,84,0.00,,,0.00,WUHU216HW,2013-06-29 12:58:00,
2013-06-29 09:03:00,76.0,70.1,29.46,North,0,0.0,0.0,82,0.00,,,0.00,WUHU216HW,2013-06-29 13:03:00,
2013-06-29 09:08:00,76.7,70.4,29.46,North,0,0.0,0.0,81,0.00,,,0.00,WUHU216HW,2013-06-29 13:08:00,
2013-06-29 09:13:00,77.4,70.4,29.46,North,0,0.0,0.0,79,0.00,,,0.00,WUHU216HW,2013-06-29 13:13:00,
2013-06-29 09:18:00,77.9,70.5,29.46,North,0,0.0,0.0,78,0.00,,,0.00,WUHU216HW,2013-06-29 13:18:00,
2013-06-29 09:23:00,78.5,69.8,29.46,North,0,0.0,0.0,75,0.00,,,0.00,WUHU216HW,2013-06-29 13:23:00,
2013-06-29 09:28:00,78.5,69.8,29.46,North,0,0.0,0.0,75,0.00,,,0.00,WUHU216HW,2013-06-29 13:28:00,
2013-06-29 09:33:00,78.1,69.9,29.46,North,0,0.0,0.0,76,0.00,,,0.00,WUHU216HW,2013-06-29 13:33:00,
2013-06-29 09:39:00,77.9,68.9,29.46,North,0,0.0,0.0,74,0.00,,,0.00,WUHU216HW,2013-06-29 13:39:00,
2013-06-29 09:44:00,77.9,69.3,29.46,North,0,0.0,0.0,75,0.00,,,0.00,WUHU216HW,2013-06-29 13:44:00,
2013-06-29 09:49:00,78.1,69.5,29.46,North,0,0.0,0.0,75,0.00,,,0.00,WUHU216HW,2013-06-29 13:49:00,
2013-06-29 09:54:00,78.1,69.5,29.46,North,0,0.0,0.0,75,0.00,,,0.00,WUHU216HW,2013-06-29 13:54:00,
2013-06-29 09:59:00,78.3,68.1,29.46,North,0,0.0,0.0,71,0.00,,,0.00,WUHU216HW,2013-06-29 13:59:00,
2013-06-29 10:04:00,78.5,68.3,29.46,North,0,0.0,0.0,71,0.00,,,0.00,WUHU216HW,2013-06-29 14:04:00,
2013-06-29 10:09:00,78.5,68.7,29.46,North,0,0.0,0.0,72,0.00,,,0.00,WUHU216HW,2013-06-29 14:09:00,
2013-06-29 10:14:00,78.8,68.6,29.46,North,0,0.0,0.0,71,0.00,,,0.00,WUHU216HW,2013-06-29 14:14:00,
2013-06-29 10:19:00,79.0,68.8,29.46,North,0,0.0,0.0,71,0.00,,,0.00,WUHU216HW,2013-06-29 14:19:00,
2013-06-29 10:24:00,79.0,68.8,29.46,North,0,0.0,0.0,71,0.00,,,0.00,WUHU216HW,2013-06-29 14:24:00,
2013-06-29 10:30:00,78.8,68.2,29.46,North,0,0.0,0.0,70,0.00,,,0.00,WUHU216HW,2013-06-29 14:30:00,
2013-06-29 10:35:00,79.2,67.7,29.46,North,0,0.0,0.0,68,0.00,,,0.00,WUHU216HW,2013-06-29 14:35:00,
2013-06-29 10:40:00,79.4,67.9,29.46,North,0,0.0,0.0,68,0.00,,,0.00,WUHU216HW,2013-06-29 14:40:00,
2013-06-29 10:45:00,79.4,68.8,29.47,North,0,0.0,0.0,70,0.00,,,0.00,WUHU216HW,2013-06-29 14:45:00,
2013-06-29 10:50:00,79.7,68.2,29.47,North,0,0.0,0.0,68,0.00,,,0.00,WUHU216HW,2013-06-29 14:50:00,
2013-06-29 10:55:00,80.1,68.1,29.46,North,0,0.0,0.0,67,0.00,,,0.00,WUHU216HW,2013-06-29 14:55:00,
2013-06-29 11:00:00,80.6,69.1,29.46,North,0,0.0,0.0,68,0.00,,,0.00,WUHU216HW,2013-06-29 15:00:00,
2013-06-29 11:05:00,81.0,68.1,29.47,North,0,0.0,0.0,65,0.00,,,0.00,WUHU216HW,2013-06-29 15:05:00,
2013-06-29 11:10:00,80.6,68.7,29.47,North,0,0.0,0.0,67,0.00,,,0.00,WUHU216HW,2013-06-29 15:10:00,
2013-06-29 11:15:00,80.6,68.7,29.47,North,0,0.0,0.0,67,0.00,,,0.00,WUHU216HW,2013-06-29 15:15:00,
2013-06-29 11:20:00,80.3,67.9,29.47,North,0,0.0,0.0,66,0.00,,,0.00,WUHU216HW,2013-06-29 15:20:00,
2013-06-29 11:25:00,80.3,67.9,29.47,North,0,0.0,0.0,66,0.00,,,0.00,WUHU216HW,2013-06-29 15:25:00,
2013-06-29 11:30:00,80.3,67.4,29.46,North,0,0.0,0.0,65,0.00,,,0.00,WUHU216HW,2013-06-29 15:30:00,
2013-06-29 11:35:00,80.3,67.9,29.47,North,0,0.0,0.0,66,0.00,,,0.00,WUHU216HW,2013-06-29 15:35:00,
2013-06-29 11:41:00,80.6,67.3,29.47,North,0,0.0,0.0,64,0.00,,,0.00,WUHU216HW,2013-06-29 15:41:00,
2013-06-29 11:43:00,80.6,67.8,29.47,North,0,0.0,0.0,65,0.00,,,0.00,WUHU216HW,2013-06-29 15:43:00,
2013-06-29 11:48:00,81.0,68.6,29.47,North,0,0.0,0.0,66,0.00,,,0.00,WUHU216HW,2013-06-29 15:48:00,
2013-06-29 11:53:00,81.5,69.0,29.47,North,0,0.0,0.0,66,0.00,,,0.00,WUHU216HW,2013-06-29 15:53:00,
2013-06-29 11:58:00,81.9,69.4,29.46,North,0,0.0,0.0,66,0.00,,,0.00,WUHU216HW,2013-06-29 15:58:00,
2013-06-29 12:03:00,82.1,69.0,29.46,North,0,0.0,0.0,65,0.00,,,0.00,WUHU216HW,2013-06-29 16:03:00,
2013-06-29 12:08:00,82.1,69.5,29.46,North,0,0.0,0.0,66,0.00,,,0.00,WUHU216HW,2013-06-29 16:08:00,
2013-06-29 12:13:00,82.4,69.8,29.46,North,0,0.0,0.0,66,0.00,,,0.00,WUHU216HW,2013-06-29 16:13:00,
2013-06-29 12:18:00,83.0,69.9,29.46,North,0,0.0,0.0,65,0.00,,,0.00,WUHU216HW,2013-06-29 16:18:00,
2013-06-29 12:23:00,83.3,69.8,29.46,North,0,0.0,0.0,64,0.00,,,0.00,WUHU216HW,2013-06-29 16:23:00,
2013-06-29 12:29:00,83.3,68.9,29.46,North,0,0.0,0.0,62,0.00,,,0.00,WUHU216HW,2013-06-29 16:29:00,
2013-06-29 12:34:00,83.3,67.0,29.46,North,0,0.0,0.0,58,0.00,,,0.00,WUHU216HW,2013-06-29 16:34:00,
2013-06-29 12:39:00,83.2,67.3,29.46,North,0,0.0,0.0,59,0.00,,,0.00,WUHU216HW,2013-06-29 16:39:00,
2013-06-29 12:44:00,83.2,68.8,29.46,North,0,0.0,0.0,62,0.00,,,0.00,WUHU216HW,2013-06-29 16:44:00,
2013-06-29 12:49:00,83.2,68.3,29.46,North,0,0.0,0.0,61,0.00,,,0.00,WUHU216HW,2013-06-29 16:49:00,
2013-06-29 12:54:00,83.2,67.3,29.46,North,0,0.0,0.0,59,0.00,,,0.00,WUHU216HW,2013-06-29 16:54:00,
2013-06-29 12:59:00,83.3,68.9,29.46,North,0,0.0,0.0,62,0.00,,,0.00,WUHU216HW,2013-06-29 16:59:00,
2013-06-29 13:04:00,83.9,67.5,29.46,North,0,0.0,0.0,58,0.00,,,0.00,WUHU216HW,2013-06-29 17:04:00,
2013-06-29 13:09:00,83.9,67.5,29.46,North,0,0.0,0.0,58,0.00,,,0.00,WUHU216HW,2013-06-29 17:09:00,
2013-06-29 13:15:00,84.1,67.7,29.46,North,0,0.0,0.0,58,0.00,,,0.00,WUHU216HW,2013-06-29 17:15:00,
2013-06-29 13:20:00,84.6,68.2,29.46,North,0,0.0,0.0,58,0.00,,,0.00,WUHU216HW,2013-06-29 17:20:00,
2013-06-29 13:25:00,85.0,67.5,29.46,North,0,0.0,0.0,56,0.00,,,0.00,WUHU216HW,2013-06-29 17:25:00,
2013-06-29 13:30:00,85.1,67.1,29.46,North,0,0.0,0.0,55,0.00,,,0.00,WUHU216HW,2013-06-29 17:30:00,
2013-06-29 13:35:00,85.5,68.5,29.46,North,0,0.0,0.0,57,0.00,,,0.00,WUHU216HW,2013-06-29 17:35:00,
2013-06-29 13:40:00,85.7,68.1,29.46,North,0,0.0,0.0,56,0.00,,,0.00,WUHU216HW,2013-06-29 17:40:00,
2013-06-29 13:45:00,86.0,67.4,29.46,North,0,0.0,0.0,54,0.00,,,0.00,WUHU216HW,2013-06-29 17:45:00,
2013-06-29 13:50:00,86.2,67.6,29.46,North,0,0.0,0.0,54,0.00,,,0.00,WUHU216HW,2013-06-29 17:50:00,
2013-06-29 13:55:00,85.9,67.8,29.46,North,0,0.0,0.0,55,0.00,,,0.00,WUHU216HW,2013-06-29 17:55:00,
2013-06-29 14:01:00,85.7,67.2,29.46,North,0,0.0,0.0,54,0.00,,,0.00,WUHU216HW,2013-06-29 18:01:00,
2013-06-29 14:06:00,85.7,67.2,29.46,North,0,0.0,0.0,54,0.00,,,0.00,WUHU216HW,2013-06-29 18:06:00,
2013-06-29 14:11:00,86.2,67.6,29.45,North,0,0.0,0.0,54,0.00,,,0.00,WUHU216HW,2013-06-29 18:11:00,
2013-06-29 14:16:00,86.2,66.5,29.45,North,0,0.0,0.0,52,0.00,,,0.00,WUHU216HW,2013-06-29 18:16:00,
2013-06-29 14:21:00,86.4,66.2,29.46,North,0,0.0,0.0,51,0.00,,,0.00,WUHU216HW,2013-06-29 18:21:00,
2013-06-29 14:26:00,86.0,67.4,29.46,North,0,0.0,0.0,54,0.00,,,0.00,WUHU216HW,2013-06-29 18:26:00,
2013-06-29 14:31:00,86.0,67.4,29.46,North,0,0.0,0.0,54,0.00,,,0.00,WUHU216HW,2013-06-29 18:31:00,
2013-06-29 14:36:00,86.6,69.0,29.46,North,0,0.0,0.0,56,0.00,,,0.00,WUHU216HW,2013-06-29 18:36:00,
2013-06-29 14:41:00,86.9,67.8,29.46,North,0,0.0,0.0,53,0.00,,,0.00,WUHU216HW,2013-06-29 18:41:00,
2013-06-29 14:46:00,87.1,68.4,29.46,North,0,0.0,0.0,54,0.00,,,0.00,WUHU216HW,2013-06-29 18:46:00,
2013-06-29 14:51:00,86.6,67.4,29.46,North,0,0.0,0.0,53,0.00,,,0.00,WUHU216HW,2013-06-29 18:51:00,
2013-06-29 14:56:00,86.0,68.5,29.46,North,0,0.0,0.0,56,0.00,,,0.00,WUHU216HW,2013-06-29 18:56:00,
2013-06-29 15:01:00,86.6,69.0,29.46,North,0,0.0,0.0,56,0.00,,,0.00,WUHU216HW,2013-06-29 19:01:00,
2013-06-29 15:07:00,86.6,68.0,29.46,North,0,0.0,0.0,54,0.00,,,0.00,WUHU216HW,2013-06-29 19:07:00,
2013-06-29 15:12:00,86.0,67.4,29.46,North,0,0.0,0.0,54,0.00,,,0.00,WUHU216HW,2013-06-29 19:12:00,
2013-06-29 15:17:00,86.0,69.0,29.46,North,0,0.0,0.0,57,0.00,,,0.00,WUHU216HW,2013-06-29 19:17:00,
2013-06-29 15:22:00,86.2,68.7,29.46,North,0,0.0,0.0,56,0.00,,,0.00,WUHU216HW,2013-06-29 19:22:00,
2013-06-29 15:27:00,86.0,68.5,29.46,North,0,0.0,0.0,56,0.00,,,0.00,WUHU216HW,2013-06-29 19:27:00,
2013-06-29 15:32:00,85.9,67.2,29.46,North,0,0.0,0.0,54,0.00,,,0.00,WUHU216HW,2013-06-29 19:32:00,
2013-06-29 15:37:00,85.9,67.8,29.46,North,0,0.0,0.0,55,0.00,,,0.00,WUHU216HW,2013-06-29 19:37:00,
2013-06-29 15:42:00,87.1,67.4,29.46,North,0,0.0,0.0,52,0.00,,,0.00,WUHU216HW,2013-06-29 19:42:00,
2013-06-29 15:47:00,87.8,68.0,29.46,North,0,0.0,0.0,52,0.00,,,0.00,WUHU216HW,2013-06-29 19:47:00,
2013-06-29 15:52:00,88.4,67.4,29.46,North,0,0.0,0.0,50,0.00,,,0.00,WUHU216HW,2013-06-29 19:52:00,
2013-06-29 15:58:00,88.4,66.8,29.46,North,0,0.0,0.0,49,0.00,,,0.00,WUHU216HW,2013-06-29 19:58:00,
2013-06-29 16:03:00,88.4,68.0,29.46,North,0,0.0,0.0,51,0.00,,,0.00,WUHU216HW,2013-06-29 20:03:00,
2013-06-29 16:08:00,88.2,66.7,29.46,North,0,0.0,0.0,49,0.00,,,0.00,WUHU216HW,2013-06-29 20:08:00,
2013-06-29 16:13:00,88.4,68.0,29.46,North,0,0.0,0.0,51,0.00,,,0.00,WUHU216HW,2013-06-29 20:13:00,
2013-06-29 16:18:00,88.6,67.6,29.47,North,0,0.0,0.0,50,0.00,,,0.00,WUHU216HW,2013-06-29 20:18:00,
2013-06-29 16:23:00,88.6,67.0,29.47,North,0,0.0,0.0,49,0.00,,,0.00,WUHU216HW,2013-06-29 20:23:00,
2013-06-29 16:28:00,88.9,68.0,29.47,North,0,0.0,0.0,50,0.00,,,0.00,WUHU216HW,2013-06-29 20:28:00,
2013-06-29 16:33:00,88.9,66.0,29.47,North,0,0.0,0.0,47,0.00,,,0.00,WUHU216HW,2013-06-29 20:33:00,
2013-06-29 16:38:00,88.7,65.9,29.47,North,0,0.0,0.0,47,0.00,,,0.00,WUHU216HW,2013-06-29 20:38:00,
2013-06-29 16:43:00,88.7,65.9,29.47,North,0,0.0,0.0,47,0.00,,,0.00,WUHU216HW,2013-06-29 20:43:00,
2013-06-29 16:48:00,88.7,65.3,29.47,North,0,0.0,0.0,46,0.00,,,0.00,WUHU216HW,2013-06-29 20:48:00,
2013-06-29 16:54:00,88.2,65.3,29.47,North,0,0.0,0.0,47,0.00,,,0.00,WUHU216HW,2013-06-29 20:54:00,
2013-06-29 16:59:00,88.6,67.0,29.47,North,0,0.0,0.0,49,0.00,,,0.00,WUHU216HW,2013-06-29 20:59:00,
2013-06-29 17:04:00,88.9,66.0,29.47,North,0,0.0,0.0,47,0.00,,,0.00,WUHU216HW,2013-06-29 21:04:00,
2013-06-29 17:09:00,89.5,66.5,29.47,North,0,0.0,0.0,47,0.00,,,0.00,WUHU216HW,2013-06-29 21:09:00,
2013-06-29 17:14:00,91.4,65.7,29.47,North,0,0.0,0.0,43,0.00,,,0.00,WUHU216HW,2013-06-29 21:14:00,
2013-06-29 17:19:00,92.7,66.8,29.47,North,0,0.0,0.0,43,0.00,,,0.00,WUHU216HW,2013-06-29 21:19:00,
2013-06-29 17:20:00,93.1,67.8,29.47,North,0,0.0,0.0,44,0.00,,,0.00,WUHU216HW,2013-06-29 21:20:00,
2013-06-29 17:25:00,93.6,67.0,29.47,North,0,0.0,0.0,42,0.00,,,0.00,WUHU216HW,2013-06-29 21:25:00,
2013-06-29 17:30:00,94.3,67.0,29.47,North,0,0.0,0.0,41,0.00,,,0.00,WUHU216HW,2013-06-29 21:30:00,
2013-06-29 17:35:00,95.9,69.1,29.47,North,0,0.0,0.0,42,0.00,,,0.00,WUHU216HW,2013-06-29 21:35:00,
2013-06-29 17:40:00,96.8,67.0,29.47,North,0,0.0,0.0,38,0.00,,,0.00,WUHU216HW,2013-06-29 21:40:00,
2013-06-29 17:45:00,95.6,65.8,29.47,North,0,0.0,0.0,38,0.00,,,0.00,WUHU216HW,2013-06-29 21:45:00,
2013-06-29 17:50:00,95.6,67.4,29.47,North,0,0.0,0.0,40,0.00,,,0.00,WUHU216HW,2013-06-29 21:50:00,
2013-06-29 17:55:00,96.5,67.4,29.47,North,0,0.0,0.0,39,0.00,,,0.00,WUHU216HW,2013-06-29 21:55:00,
2013-06-29 18:00:00,97.4,68.2,29.47,North,0,0.0,0.0,39,0.00,,,0.00,WUHU216HW,2013-06-29 22:00:00,
2013-06-29 18:05:00,97.4,65.8,29.47,North,0,0.0,0.0,36,0.00,,,0.00,WUHU216HW,2013-06-29 22:05:00,
2013-06-29 18:10:00,97.6,67.6,29.47,North,0,0.0,0.0,38,0.00,,,0.00,WUHU216HW,2013-06-29 22:10:00,
2013-06-29 18:16:00,97.6,67.6,29.47,North,0,0.0,0.0,38,0.00,,,0.00,WUHU216HW,2013-06-29 22:16:00,
2013-06-29 18:21:00,97.4,65.8,29.47,North,0,0.0,0.0,36,0.00,,,0.00,WUHU216HW,2013-06-29 22:21:00,
2013-06-29 18:26:00,97.0,67.1,29.47,North,0,0.0,0.0,38,0.00,,,0.00,WUHU216HW,2013-06-29 22:26:00,
2013-06-29 18:31:00,95.6,66.6,29.47,North,0,0.0,0.0,39,0.00,,,0.00,WUHU216HW,2013-06-29 22:31:00,
2013-06-29 18:36:00,96.3,68.1,29.47,North,0,0.0,0.0,40,0.00,,,0.00,WUHU216HW,2013-06-29 22:36:00,
2013-06-29 18:41:00,96.8,67.8,29.47,North,0,0.0,0.0,39,0.00,,,0.00,WUHU216HW,2013-06-29 22:41:00,
2013-06-29 18:46:00,98.6,66.9,29.47,North,0,0.0,0.0,36,0.00,,,0.00,WUHU216HW,2013-06-29 22:46:00,
2013-06-29 18:51:00,98.6,66.9,29.48,North,0,0.0,0.0,36,0.00,,,0.00,WUHU216HW,2013-06-29 22:51:00,
2013-06-29 18:56:00,99.0,67.2,29.48,North,0,0.0,0.0,36,0.00,,,0.00,WUHU216HW,2013-06-29 22:56:00,
2013-06-29 19:01:00,98.8,67.1,29.48,North,0,0.0,0.0,36,0.00,,,0.00,WUHU216HW,2013-06-29 23:01:00,
2013-06-29 19:07:00,99.2,69.0,29.48,North,0,0.0,0.0,38,0.00,,,0.00,WUHU216HW,2013-06-29 23:07:00,
2013-06-29 19:12:00,97.9,68.8,29.48,North,0,0.0,0.0,39,0.00,,,0.00,WUHU216HW,2013-06-29 23:12:00,
2013-06-29 19:17:00,96.5,68.2,29.49,North,0,0.0,0.0,40,0.00,,,0.00,WUHU216HW,2013-06-29 23:17:00,
2013-06-29 19:22:00,94.3,66.3,29.49,North,0,0.0,0.0,40,0.00,,,0.00,WUHU216HW,2013-06-29 23:22:00,
2013-06-29 19:27:00,92.9,65.7,29.49,North,0,0.0,0.0,41,0.00,,,0.00,WUHU216HW,2013-06-29 23:27:00,
2013-06-29 19:32:00,91.4,65.7,29.49,North,0,0.0,0.0,43,0.00,,,0.00,WUHU216HW,2013-06-29 23:32:00,
2013-06-29 19:37:00,90.0,65.0,29.49,North,0,0.0,0.0,44,0.00,,,0.00,WUHU216HW,2013-06-29 23:37:00,
2013-06-29 19:42:00,88.7,65.3,29.49,North,0,0.0,0.0,46,0.00,,,0.00,WUHU216HW,2013-06-29 23:42:00,
2013-06-29 19:47:00,88.0,65.3,29.49,North,0,0.0,0.0,47,0.00,,,0.00,WUHU216HW,2013-06-29 23:47:00,
2013-06-29 19:53:00,86.9,64.9,29.50,North,0,0.0,0.0,48,0.00,,,0.00,WUHU216HW,2013-06-29 23:53:00,
2013-06-29 19:58:00,86.0,64.7,29.50,North,0,0.0,0.0,49,0.00,,,0.00,WUHU216HW,2013-06-29 23:58:00,
2013-06-29 20:03:00,85.3,65.3,29.51,North,0,0.0,0.0,51,0.00,,,0.00,WUHU216HW,2013-06-30 00:03:00,
2013-06-29 20:08:00,84.6,64.5,29.51,North,0,0.0,0.0,51,0.00,,,0.00,WUHU216HW,2013-06-30 00:08:00,
2013-06-29 20:13:00,84.1,64.1,29.51,North,0,0.0,0.0,51,0.00,,,0.00,WUHU216HW,2013-06-30 00:13:00,
2013-06-29 20:18:00,83.3,63.9,29.51,North,0,0.0,0.0,52,0.00,,,0.00,WUHU216HW,2013-06-30 00:18:00,
2013-06-29 20:23:00,82.4,63.5,29.51,North,0,0.0,0.0,53,0.00,,,0.00,WUHU216HW,2013-06-30 00:23:00,
2013-06-29 20:28:00,81.7,63.4,29.51,North,0,0.0,0.0,54,0.00,,,0.00,WUHU216HW,2013-06-30 00:28:00,
2013-06-29 20:34:00,81.4,63.0,29.51,North,0,0.0,0.0,54,0.00,,,0.00,WUHU216HW,2013-06-30 00:34:00,
2013-06-29 20:39:00,80.6,62.9,29.52,North,0,0.0,0.0,55,0.00,,,0.00,WUHU216HW,2013-06-30 00:39:00,
2013-06-29 20:44:00,80.3,63.1,29.52,North,0,0.0,0.0,56,0.00,,,0.00,WUHU216HW,2013-06-30 00:44:00,
2013-06-29 20:49:00,79.6,63.0,29.52,North,0,0.0,0.0,57,0.00,,,0.00,WUHU216HW,2013-06-30 00:49:00,
2013-06-29 20:54:00,79.2,62.6,29.52,North,0,0.0,0.0,57,0.00,,,0.00,WUHU216HW,2013-06-30 00:54:00,
2013-06-29 20:59:00,79.0,63.0,29.53,North,0,0.0,0.0,58,0.00,,,0.00,WUHU216HW,2013-06-30 00:59:00,
2013-06-29 21:04:00,78.7,63.2,29.53,North,0,0.0,0.0,59,0.00,,,0.00,WUHU216HW,2013-06-30 01:04:00,
2013-06-29 21:09:00,78.3,63.8,29.53,North,0,0.0,0.0,61,0.00,,,0.00,WUHU216HW,2013-06-30 01:09:00,
2013-06-29 21:14:00,77.9,63.9,29.54,North,0,0.0,0.0,62,0.00,,,0.00,WUHU216HW,2013-06-30 01:14:00,
2013-06-29 21:19:00,77.4,63.8,29.54,North,0,0.0,0.0,63,0.00,,,0.00,WUHU216HW,2013-06-30 01:19:00,
2013-06-29 21:24:00,77.2,63.6,29.54,North,0,0.0,0.0,63,0.00,,,0.00,WUHU216HW,2013-06-30 01:24:00,
2013-06-29 21:30:00,77.0,63.5,29.54,North,0,0.0,0.0,63,0.00,,,0.00,WUHU216HW,2013-06-30 01:30:00,
2013-06-29 21:35:00,76.9,63.3,29.54,North,0,0.0,0.0,63,0.00,,,0.00,WUHU216HW,2013-06-30 01:35:00,
2013-06-29 21:40:00,76.9,63.7,29.54,North,0,0.0,0.0,64,0.00,,,0.00,WUHU216HW,2013-06-30 01:40:00,
2013-06-29 21:45:00,76.7,63.5,29.54,North,0,0.0,0.0,64,0.00,,,0.00,WUHU216HW,2013-06-30 01:45:00,
2013-06-29 21:50:00,76.7,63.5,29.54,North,0,0.0,0.0,64,0.00,,,0.00,WUHU216HW,2013-06-30 01:50:00,
2013-06-29 21:55:00,76.5,63.4,29.54,North,0,0.0,0.0,64,0.00,,,0.00,WUHU216HW,2013-06-30 01:55:00,
2013-06-29 22:00:00,76.3,63.2,29.55,North,0,0.0,0.0,64,0.00,,,0.00,WUHU216HW,2013-06-30 02:00:00,
2013-06-29 22:05:00,76.0,63.4,29.55,North,0,0.0,0.0,65,0.00,,,0.00,WUHU216HW,2013-06-30 02:05:00,
2013-06-29 22:10:00,75.8,63.2,29.55,North,0,0.0,0.0,65,0.00,,,0.00,WUHU216HW,2013-06-30 02:10:00,
2013-06-29 22:15:00,75.4,63.3,29.55,North,0,0.0,0.0,66,0.00,,,0.00,WUHU216HW,2013-06-30 02:15:00,
2013-06-29 22:21:00,75.2,63.1,29.55,North,0,0.0,0.0,66,0.00,,,0.00,WUHU216HW,2013-06-30 02:21:00,
2013-06-29 22:26:00,74.7,62.6,29.55,North,0,0.0,0.0,66,0.00,,,0.00,WUHU216HW,2013-06-30 02:26:00,
2013-06-29 22:31:00,74.3,62.6,29.55,North,0,0.0,0.0,67,0.00,,,0.00,WUHU216HW,2013-06-30 02:31:00,
2013-06-29 22:36:00,74.2,62.9,29.55,North,0,0.0,0.0,68,0.00,,,0.00,WUHU216HW,2013-06-30 02:36:00,
2013-06-29 22:41:00,73.8,63.1,29.55,North,0,0.0,0.0,69,0.00,,,0.00,WUHU216HW,2013-06-30 02:41:00,
2013-06-29 22:46:00,73.6,62.9,29.55,North,0,0.0,0.0,69,0.00,,,0.00,WUHU216HW,2013-06-30 02:46:00,
2013-06-29 22:51:00,73.3,62.6,29.55,North,0,0.0,0.0,69,0.00,,,0.00,WUHU216HW,2013-06-30 02:51:00,
2013-06-29 22:56:00,73.1,62.4,29.55,North,0,0.0,0.0,69,0.00,,,0.00,WUHU216HW,2013-06-30 02:56:00,
2013-06-29 23:01:00,72.9,62.6,29.55,North,0,0.0,0.0,70,0.00,,,0.00,WUHU216HW,2013-06-30 03:01:00,
2013-06-29 23:07:00,72.7,62.5,29.56,North,0,0.0,0.0,70,0.00,,,0.00,WUHU216HW,2013-06-30 03:07:00,
2013-06-29 23:12:00,72.7,62.8,29.56,North,0,0.0,0.0,71,0.00,,,0.00,WUHU216HW,2013-06-30 03:12:00,
2013-06-29 23:17:00,72.4,62.5,29.56,North,0,0.0,0.0,71,0.00,,,0.00,WUHU216HW,2013-06-30 03:17:00,
2013-06-29 23:22:00,72.0,62.5,29.56,North,0,0.0,0.0,72,0.00,,,0.00,WUHU216HW,2013-06-30 03:22:00,
2013-06-29 23:27:00,71.6,62.1,29.56,North,0,0.0,0.0,72,0.00,,,0.00,WUHU216HW,2013-06-30 03:27:00,
2013-06-29 23:32:00,71.5,62.4,29.56,North,0,0.0,0.0,73,0.00,,,0.00,WUHU216HW,2013-06-30 03:32:00,
2013-06-29 23:37:00,71.1,62.4,29.56,North,0,0.0,0.0,74,0.00,,,0.00,WUHU216HW,2013-06-30 03:37:00,
2013-06-29 23:42:00,70.9,62.2,29.56,North,0,0.0,0.0,74,0.00,,,0.00,WUHU216HW,2013-06-30 03:42:00,
2013-06-29 23:47:00,70.9,62.2,29.56,North,0,0.0,0.0,74,0.00,,,0.00,WUHU216HW,2013-06-30 03:47:00,
2013-06-29 23:52:00,70.7,62.0,29.56,North,0,0.0,0.0,74,0.00,,,0.00,WUHU216HW,2013-06-30 03:52:00,
2013-06-29 23:57:00,70.9,62.6,29.56,North,0,0.0,0.0,75,0.00,,,0.00,WUHU216HW,2013-06-30 03:57:00,